createdAt,value
2023-04-11T00:02:04.649Z,99.90
2023-04-11T00:04:39.118Z,99.90
2023-04-11T00:07:11.035Z,99.90
2023-04-11T00:09:44.497Z,99.90
2023-04-11T00:12:16.904Z,99.90
2023-04-11T00:14:53.744Z,99.90
2023-04-11T00:17:31.265Z,99.90
2023-04-11T00:20:07.561Z,99.90
2023-04-11T00:22:39.901Z,99.90
2023-04-11T00:25:12.666Z,99.90
2023-04-11T00:27:44.581Z,99.90
2023-04-11T00:30:16.924Z,99.90
2023-04-11T00:32:49.585Z,99.90
2023-04-11T00:35:23.912Z,99.90
2023-04-11T00:38:03.823Z,99.90
2023-04-11T00:40:35.444Z,99.90
2023-04-11T00:43:07.420Z,99.90
2023-04-11T00:45:40.588Z,99.90
2023-04-11T00:48:12.425Z,99.90
2023-04-11T00:50:47.001Z,99.90
2023-04-11T00:53:21.610Z,99.90
2023-04-11T00:55:53.948Z,99.90
2023-04-11T00:58:26.701Z,99.90
2023-04-11T01:00:58.383Z,99.90
2023-04-11T01:03:31.037Z,99.90
2023-04-11T01:06:07.043Z,99.90
2023-04-11T01:08:44.964Z,99.90
2023-04-11T01:11:20.170Z,99.90
2023-04-11T01:13:53.512Z,99.90
2023-04-11T01:16:25.211Z,99.90
2023-04-11T01:18:58.311Z,99.90
2023-04-11T01:21:32.520Z,99.90
2023-04-11T01:24:05.823Z,99.90
2023-04-11T01:26:37.782Z,99.90
2023-04-11T01:29:09.703Z,99.90
2023-04-11T01:31:42.107Z,99.90
2023-04-11T01:34:18.227Z,99.90
2023-04-11T01:36:50.780Z,99.90
2023-04-11T01:39:24.381Z,99.90
2023-04-11T01:41:57.801Z,99.90
2023-04-11T01:44:31.736Z,99.90
2023-04-11T01:47:03.693Z,99.90
2023-04-11T01:49:35.613Z,99.90
2023-04-11T01:52:07.514Z,99.90
2023-04-11T01:54:40.680Z,99.90
2023-04-11T01:57:12.540Z,99.90
2023-04-11T01:59:44.802Z,99.90
2023-04-11T02:02:26.049Z,99.90
2023-04-11T02:04:58.012Z,99.90
2023-04-11T02:07:29.978Z,99.90
2023-04-11T02:10:03.294Z,99.90
2023-04-11T02:12:35.134Z,99.90
2023-04-11T02:15:07.168Z,99.90
2023-04-11T02:17:45.222Z,99.90
2023-04-11T02:20:17.509Z,99.90
2023-04-11T02:22:49.076Z,99.90
2023-04-11T02:25:22.362Z,99.90
2023-04-11T02:27:54.191Z,99.90
2023-04-11T02:30:26.220Z,99.90
2023-04-11T02:33:00.052Z,99.90
2023-04-11T02:35:31.908Z,99.90
2023-04-11T02:38:04.937Z,99.90
2023-04-11T02:40:37.870Z,99.90
2023-04-11T02:43:09.859Z,99.90
2023-04-11T02:45:42.740Z,99.90
2023-04-11T02:48:15.072Z,99.90
2023-04-11T02:50:48.968Z,99.90
2023-04-11T02:53:21.361Z,99.90
2023-04-11T02:55:58.384Z,99.90
2023-04-11T02:58:38.986Z,99.90
2023-04-11T03:01:12.121Z,99.90
2023-04-11T03:03:45.544Z,99.90
2023-04-11T03:06:20.530Z,99.90
2023-04-11T03:08:54.033Z,99.90
2023-04-11T03:11:27.230Z,99.90
2023-04-11T03:14:00.686Z,99.90
2023-04-11T03:16:36.675Z,99.90
2023-04-11T03:19:08.627Z,99.90
2023-04-11T03:21:40.390Z,99.90
2023-04-11T03:24:13.624Z,99.90
2023-04-11T03:26:46.545Z,99.90
2023-04-11T03:29:20.993Z,99.90
2023-04-11T03:31:54.350Z,99.90
2023-04-11T03:34:28.746Z,99.90
2023-04-11T03:37:03.583Z,99.90
2023-04-11T03:39:35.478Z,99.90
2023-04-11T03:42:08.876Z,99.90
2023-04-11T03:44:40.741Z,99.90
2023-04-11T03:47:14.976Z,99.50
2023-04-11T03:49:46.660Z,99.30
2023-04-11T03:52:18.260Z,99.60
2023-04-11T03:54:50.160Z,99.30
2023-04-11T03:57:26.655Z,99.10
2023-04-11T03:59:59.001Z,98.80
2023-04-11T04:02:30.952Z,99.20
2023-04-11T04:05:02.771Z,98.90
2023-04-11T04:07:35.241Z,99.20
2023-04-11T04:10:07.995Z,98.80
2023-04-11T04:12:42.582Z,99.40
2023-04-11T04:15:15.092Z,98.80
2023-04-11T04:17:47.082Z,99.20
2023-04-11T04:20:19.122Z,99.30
2023-04-11T04:22:53.805Z,99.40
2023-04-11T04:25:26.165Z,99.50
2023-04-11T04:28:00.910Z,99.70
2023-04-11T04:30:32.633Z,99.90
2023-04-11T04:33:04.616Z,99.90
2023-04-11T04:35:36.505Z,99.90
2023-04-11T04:38:17.593Z,99.90
2023-04-11T04:40:50.476Z,99.90
2023-04-11T04:43:32.230Z,99.90
2023-04-11T04:46:04.011Z,99.90
2023-04-11T04:48:35.858Z,99.90
2023-04-11T04:51:10.860Z,99.90
2023-04-11T04:53:42.728Z,99.90
2023-04-11T04:56:14.596Z,99.90
2023-04-11T04:58:47.776Z,99.90
2023-04-11T05:01:20.478Z,99.90
2023-04-11T05:04:00.199Z,99.90
2023-04-11T05:06:33.908Z,99.90
2023-04-11T05:09:06.645Z,99.90
2023-04-11T05:11:38.529Z,99.90
2023-04-11T05:14:11.813Z,99.90
2023-04-11T05:16:45.637Z,99.90
2023-04-11T05:19:17.455Z,99.90
2023-04-11T05:21:49.325Z,99.90
2023-04-11T05:24:21.666Z,99.90
2023-04-11T05:26:53.496Z,99.90
2023-04-11T05:29:27.172Z,99.90
2023-04-11T05:31:59.107Z,99.90
2023-04-11T05:34:34.281Z,99.90
2023-04-11T05:37:06.955Z,99.90
2023-04-11T05:39:38.521Z,99.90
2023-04-11T05:42:10.214Z,99.90
2023-04-11T05:44:43.228Z,99.90
2023-04-11T05:47:15.141Z,99.90
2023-04-11T05:49:48.592Z,99.90
2023-04-11T05:52:20.596Z,99.90
2023-04-11T05:54:52.250Z,99.90
2023-04-11T05:57:24.051Z,99.90
2023-04-11T05:59:57.250Z,99.90
2023-04-11T06:02:29.535Z,99.90
2023-04-11T06:05:01.560Z,99.90
2023-04-11T06:07:33.644Z,99.90
2023-04-11T06:10:05.968Z,99.90
2023-04-11T06:12:37.829Z,99.90
2023-04-11T06:15:15.776Z,99.90
2023-04-11T06:17:47.463Z,99.90
2023-04-11T06:20:20.152Z,99.90
2023-04-11T06:22:53.855Z,99.90
2023-04-11T06:25:25.968Z,99.90
2023-04-11T06:27:57.560Z,99.90
2023-04-11T06:30:30.788Z,99.90
2023-04-11T06:33:02.592Z,99.90
2023-04-11T06:35:34.467Z,99.90
2023-04-11T06:38:06.316Z,99.90
2023-04-11T06:40:38.166Z,99.90
2023-04-11T06:43:11.671Z,99.90
2023-04-11T06:45:44.892Z,99.90
2023-04-11T06:48:17.840Z,99.90
2023-04-11T06:50:51.225Z,99.90
2023-04-11T06:53:23.024Z,99.90
2023-04-11T06:55:54.715Z,99.90
2023-04-11T06:58:26.549Z,99.90
2023-04-11T07:00:59.817Z,99.90
2023-04-11T07:03:32.446Z,99.90
2023-04-11T07:06:04.165Z,99.90
2023-04-11T07:08:36.728Z,99.90
2023-04-11T07:11:08.536Z,99.90
2023-04-11T07:13:40.337Z,99.90
2023-04-11T07:16:15.719Z,99.90
2023-04-11T07:18:47.644Z,99.90
2023-04-11T07:21:19.634Z,99.90
2023-04-11T07:23:52.619Z,99.90
2023-04-11T07:26:27.205Z,99.90
2023-04-11T07:28:59.087Z,99.90
2023-04-11T07:31:32.288Z,99.90
2023-04-11T07:34:04.242Z,99.90
2023-04-11T07:36:36.062Z,99.90
2023-04-11T07:39:09.468Z,99.90
2023-04-11T07:41:41.458Z,99.90
2023-04-11T07:44:13.420Z,99.90
2023-04-11T07:46:46.606Z,99.90
2023-04-11T07:49:18.422Z,99.90
2023-04-11T07:51:50.287Z,99.90
2023-04-11T07:54:25.015Z,99.90
2023-04-11T07:56:56.889Z,99.90
2023-04-11T07:59:28.466Z,99.90
2023-04-11T08:02:06.448Z,99.90
2023-04-11T08:04:39.313Z,99.90
2023-04-11T08:07:11.472Z,99.90
2023-04-11T08:09:43.460Z,99.90
2023-04-11T08:12:16.608Z,99.90
2023-04-11T08:14:48.222Z,99.90
2023-04-11T08:17:28.676Z,99.90
2023-04-11T08:20:02.337Z,99.90
2023-04-11T08:22:34.257Z,99.90
2023-04-11T08:25:08.178Z,99.90
2023-04-11T08:27:40.336Z,99.90
2023-04-11T08:30:14.896Z,99.90
2023-04-11T08:32:48.147Z,99.90
2023-04-11T08:35:19.975Z,99.90
2023-04-11T08:37:51.931Z,99.90
2023-04-11T08:40:25.207Z,99.90
2023-04-11T08:43:03.639Z,99.90
2023-04-11T08:45:35.432Z,99.90
2023-04-11T08:48:10.814Z,99.90
2023-04-11T08:50:42.357Z,99.90
2023-04-11T08:53:15.579Z,99.90
2023-04-11T08:55:50.994Z,99.90
2023-04-11T08:58:23.634Z,99.90
2023-04-11T09:00:55.476Z,99.90
2023-04-11T09:03:28.657Z,99.90
2023-04-11T09:06:09.929Z,99.90
2023-04-11T09:08:43.821Z,99.90
2023-04-11T09:11:15.699Z,99.90
2023-04-11T09:13:48.571Z,99.90
2023-04-11T09:16:21.957Z,99.90
2023-04-11T09:18:55.416Z,99.90
2023-04-11T09:21:28.161Z,99.90
2023-04-11T09:24:14.888Z,99.90
2023-04-11T09:26:47.441Z,99.90
2023-04-11T09:29:39.293Z,99.90
2023-04-11T09:32:27.685Z,99.90
2023-04-11T09:35:18.571Z,99.90
2023-04-11T09:37:54.006Z,99.90
2023-04-11T09:40:31.773Z,99.90
2023-04-11T09:43:06.438Z,99.90
2023-04-11T09:45:51.629Z,99.90
2023-04-11T09:48:39.523Z,99.90
2023-04-11T09:51:35.211Z,98.40
2023-04-11T09:54:09.154Z,98.00
2023-04-11T09:56:43.058Z,98.70
2023-04-11T09:59:15.896Z,98.10
2023-04-11T10:01:48.837Z,98.20
2023-04-11T10:04:21.373Z,99.10
2023-04-11T10:07:09.110Z,99.90
2023-04-11T10:09:46.222Z,99.90
2023-04-11T10:12:33.399Z,99.90
2023-04-11T10:15:12.042Z,99.90
2023-04-11T10:18:05.270Z,99.90
2023-04-11T10:20:47.242Z,99.90
2023-04-11T10:23:20.982Z,99.90
2023-04-11T10:26:01.216Z,99.90
2023-04-11T10:28:41.437Z,99.90
2023-04-11T10:31:14.240Z,99.10
2023-04-11T10:34:16.097Z,99.10
2023-04-11T10:37:06.013Z,98.50
2023-04-11T10:40:11.994Z,98.30
2023-04-11T10:42:46.737Z,98.00
2023-04-11T10:45:27.129Z,97.90
2023-04-11T10:48:13.670Z,97.80
2023-04-11T10:50:48.802Z,98.40
2023-04-11T10:53:40.876Z,97.00
2023-04-11T10:56:15.530Z,97.70
2023-04-11T10:58:49.443Z,97.60
2023-04-11T11:01:32.154Z,98.00
2023-04-11T11:04:12.788Z,97.10
2023-04-11T11:06:50.985Z,96.40
2023-04-11T11:09:28.667Z,94.60
2023-04-11T11:12:13.772Z,91.40
2023-04-11T11:14:48.299Z,90.40
2023-04-11T11:17:21.940Z,89.70
2023-04-11T11:19:53.882Z,88.00
2023-04-11T11:22:28.683Z,87.70
2023-04-11T11:25:13.526Z,89.40
2023-04-11T11:27:46.610Z,90.70
2023-04-11T11:30:21.005Z,90.50
2023-04-11T11:32:52.934Z,88.60
2023-04-11T11:35:24.932Z,88.50
2023-04-11T11:37:56.949Z,90.00
2023-04-11T11:40:28.708Z,91.40
2023-04-11T11:43:01.842Z,90.50
2023-04-11T11:45:33.875Z,84.50
2023-04-11T11:48:05.579Z,85.10
2023-04-11T11:50:38.072Z,81.60
2023-04-11T11:53:20.022Z,77.90
2023-04-11T11:55:52.554Z,81.40
2023-04-11T11:58:26.217Z,81.10
2023-04-11T12:00:58.071Z,81.20
2023-04-11T12:03:30.168Z,82.90
2023-04-11T12:06:01.878Z,81.70
2023-04-11T12:08:50.002Z,81.30
2023-04-11T12:11:22.369Z,81.40
2023-04-11T12:13:57.236Z,81.40
2023-04-11T12:16:29.261Z,83.60
2023-04-11T12:19:03.833Z,85.20
2023-04-11T12:21:37.255Z,84.10
2023-04-11T12:24:11.158Z,85.40
2023-04-11T12:26:57.595Z,86.40
2023-04-11T12:29:36.512Z,86.60
2023-04-11T12:32:08.315Z,83.70
2023-04-11T12:34:41.672Z,83.50
2023-04-11T12:37:13.271Z,80.00
2023-04-11T12:39:45.235Z,80.10
2023-04-11T12:42:20.851Z,80.80
2023-04-11T12:44:56.728Z,81.00
2023-04-11T12:47:28.580Z,81.60
2023-04-11T12:50:00.428Z,80.90
2023-04-11T12:52:32.462Z,81.30
2023-04-11T12:55:04.757Z,81.50
2023-04-11T12:57:38.238Z,79.80
2023-04-11T13:00:14.194Z,81.80
2023-04-11T13:02:46.087Z,83.50
2023-04-11T13:05:19.777Z,84.10
2023-04-11T13:07:53.368Z,85.50
2023-04-11T13:10:25.386Z,86.00
2023-04-11T13:13:05.356Z,87.70
2023-04-11T13:15:45.086Z,89.80
2023-04-11T13:18:18.457Z,90.20
2023-04-11T13:20:50.016Z,90.50
2023-04-11T13:23:21.852Z,90.40
2023-04-11T13:25:53.735Z,88.50
2023-04-11T13:28:25.542Z,82.70
2023-04-11T13:30:59.022Z,82.00
2023-04-11T13:33:32.328Z,80.30
2023-04-11T13:36:07.773Z,82.20
2023-04-11T13:38:39.640Z,83.70
2023-04-11T13:41:14.446Z,83.90
2023-04-11T13:43:46.763Z,84.50
2023-04-11T13:46:20.152Z,86.20
2023-04-11T13:48:53.447Z,87.20
2023-04-11T13:51:27.211Z,87.80
2023-04-11T13:54:00.858Z,88.60
2023-04-11T13:56:32.644Z,89.60
2023-04-11T13:59:04.472Z,88.80
2023-04-11T14:01:37.883Z,89.00
2023-04-11T14:04:11.799Z,88.40
2023-04-11T14:06:44.270Z,86.90
2023-04-11T14:09:16.328Z,88.60
2023-04-11T14:11:48.031Z,85.20
2023-04-11T14:14:21.729Z,83.40
2023-04-11T14:16:54.851Z,83.70
2023-04-11T14:19:26.810Z,86.10
2023-04-11T14:21:58.773Z,88.50
2023-04-11T14:24:31.584Z,87.60
2023-04-11T14:27:04.140Z,86.90
2023-04-11T14:29:37.482Z,84.80
2023-04-11T14:32:11.698Z,83.00
2023-04-11T14:34:43.389Z,77.40
2023-04-11T14:37:15.271Z,79.20
2023-04-11T14:39:48.658Z,84.90
2023-04-11T14:42:20.468Z,91.90
2023-04-11T14:44:53.271Z,92.40
2023-04-11T14:47:28.368Z,92.00
2023-04-11T14:50:02.172Z,92.30
2023-04-11T14:52:34.124Z,92.90
2023-04-11T14:55:05.834Z,93.00
2023-04-11T14:57:55.849Z,93.30
2023-04-11T15:00:31.270Z,93.90
2023-04-11T15:03:04.682Z,94.20
2023-04-11T15:05:36.556Z,93.40
2023-04-11T15:08:09.974Z,93.20
2023-04-11T15:10:41.809Z,93.60
2023-04-11T15:13:13.663Z,93.70
2023-04-11T15:15:45.788Z,93.00
2023-04-11T15:18:28.201Z,91.30
2023-04-11T15:21:03.419Z,91.40
2023-04-11T15:23:38.273Z,90.90
2023-04-11T15:26:10.315Z,91.80
2023-04-11T15:28:45.144Z,90.20
2023-04-11T15:31:26.605Z,90.00
2023-04-11T15:34:03.829Z,90.80
2023-04-11T15:36:38.169Z,91.20
2023-04-11T15:39:09.883Z,91.40
2023-04-11T15:41:43.089Z,90.90
2023-04-11T15:44:14.957Z,90.90
2023-04-11T15:46:48.529Z,90.40
2023-04-11T15:49:22.435Z,90.80
2023-04-11T15:51:54.237Z,90.90
2023-04-11T15:54:26.101Z,91.10
2023-04-11T15:56:59.390Z,90.70
2023-04-11T15:59:31.451Z,91.00
2023-04-11T16:02:03.311Z,90.20
2023-04-11T16:04:38.463Z,89.80
2023-04-11T16:07:10.795Z,90.30
2023-04-11T16:09:44.181Z,90.10
2023-04-11T16:12:19.876Z,88.40
2023-04-11T16:14:51.623Z,85.10
2023-04-11T16:17:24.884Z,84.30
2023-04-11T16:20:00.184Z,84.60
2023-04-11T16:22:32.366Z,85.60
2023-04-11T16:25:07.380Z,83.90
2023-04-11T16:27:39.897Z,84.20
2023-04-11T16:30:15.428Z,84.40
2023-04-11T16:32:48.851Z,83.90
2023-04-11T16:35:21.865Z,84.30
2023-04-11T16:37:53.757Z,84.60
2023-04-11T16:40:26.596Z,82.60
2023-04-11T16:42:58.527Z,83.20
2023-04-11T16:45:30.416Z,84.60
2023-04-11T16:48:02.422Z,85.50
2023-04-11T16:50:35.217Z,83.50
2023-04-11T16:53:07.474Z,83.90
2023-04-11T16:55:39.254Z,83.40
2023-04-11T16:58:12.486Z,85.30
2023-04-11T17:00:45.526Z,84.30
2023-04-11T17:03:18.108Z,84.50
2023-04-11T17:05:52.287Z,85.00
2023-04-11T17:08:25.622Z,85.00
2023-04-11T17:11:07.207Z,85.50
2023-04-11T17:13:40.570Z,84.90
2023-04-11T17:16:13.678Z,84.10
2023-04-11T17:18:48.157Z,82.50
2023-04-11T17:21:21.141Z,82.90
2023-04-11T17:23:53.138Z,82.90
2023-04-11T17:26:25.019Z,82.60
2023-04-11T17:28:56.908Z,83.50
2023-04-11T17:31:29.292Z,83.40
2023-04-11T17:34:02.439Z,84.60
2023-04-11T17:36:42.334Z,83.40
2023-04-11T17:39:17.643Z,84.40
2023-04-11T17:41:49.713Z,85.10
2023-04-11T17:44:21.540Z,86.30
2023-04-11T17:46:53.514Z,87.10
2023-04-11T17:49:27.219Z,87.30
2023-04-11T17:52:00.322Z,87.50
2023-04-11T17:54:32.072Z,88.30
2023-04-11T17:57:04.129Z,87.80
2023-04-11T17:59:36.034Z,88.90
2023-04-11T18:02:08.136Z,89.30
2023-04-11T18:04:40.116Z,90.20
2023-04-11T18:07:13.835Z,90.40
2023-04-11T18:09:47.133Z,90.70
2023-04-11T18:12:18.964Z,91.10
2023-04-11T18:15:01.203Z,91.10
2023-04-11T18:17:33.733Z,91.00
2023-04-11T18:20:08.599Z,91.50
2023-04-11T18:22:49.913Z,91.30
2023-04-11T18:25:22.359Z,91.80
2023-04-11T18:27:54.590Z,91.50
2023-04-11T18:30:26.393Z,91.80
2023-04-11T18:32:59.613Z,91.90
2023-04-11T18:35:31.647Z,91.80
2023-04-11T18:38:06.270Z,92.30
2023-04-11T18:40:37.886Z,92.30
2023-04-11T18:43:10.115Z,92.40
2023-04-11T18:45:43.301Z,92.70
2023-04-11T18:48:16.294Z,92.70
2023-04-11T18:50:48.660Z,93.00
2023-04-11T18:53:22.366Z,93.00
2023-04-11T18:55:54.369Z,92.90
2023-04-11T18:58:27.667Z,93.30
2023-04-11T19:01:14.160Z,93.50
2023-04-11T19:03:47.887Z,94.00
2023-04-11T19:06:19.793Z,94.20
2023-04-11T19:08:53.017Z,94.20
2023-04-11T19:11:24.977Z,94.50
2023-04-11T19:13:59.902Z,94.20
2023-04-11T19:16:32.260Z,94.60
2023-04-11T19:19:02.934Z,94.90
2023-04-11T19:21:34.697Z,95.10
2023-04-11T19:24:08.464Z,94.80
2023-04-11T19:26:40.888Z,95.10
2023-04-11T19:29:12.781Z,95.00
2023-04-11T19:31:44.828Z,95.20
2023-04-11T19:34:16.860Z,95.60
2023-04-11T19:36:48.471Z,95.20
2023-04-11T19:39:21.481Z,95.70
2023-04-11T19:41:53.937Z,95.90
2023-04-11T19:44:25.858Z,95.80
2023-04-11T19:46:57.741Z,95.30
2023-04-11T19:49:29.582Z,95.40
2023-04-11T19:52:02.458Z,95.40
2023-04-11T19:54:35.440Z,95.60
2023-04-11T19:57:07.300Z,95.80
2023-04-11T19:59:39.097Z,96.10
2023-04-11T20:02:12.495Z,96.50
2023-04-11T20:04:44.702Z,96.80
2023-04-11T20:07:16.660Z,96.90
2023-04-11T20:09:49.660Z,96.70
2023-04-11T20:12:21.709Z,96.60
2023-04-11T20:14:56.529Z,96.90
2023-04-11T20:17:28.188Z,97.10
2023-04-11T20:20:05.461Z,97.10
2023-04-11T20:22:38.390Z,97.20
2023-04-11T20:25:13.027Z,97.40
2023-04-11T20:27:45.961Z,97.40
2023-04-11T20:30:19.375Z,97.50
2023-04-11T20:32:51.258Z,97.50
2023-04-11T20:35:23.146Z,97.40
2023-04-11T20:37:56.951Z,97.40
2023-04-11T20:40:30.075Z,97.50
2023-04-11T20:43:02.267Z,97.90
2023-04-11T20:45:33.896Z,97.50
2023-04-11T20:48:06.387Z,97.70
2023-04-11T20:50:38.173Z,97.70
2023-04-11T20:53:10.025Z,97.40
2023-04-11T20:55:43.006Z,97.70
2023-04-11T20:58:18.486Z,97.70
2023-04-11T21:00:50.530Z,97.40
2023-04-11T21:03:30.119Z,97.90
2023-04-11T21:06:04.210Z,98.20
2023-04-11T21:08:37.690Z,97.80
2023-04-11T21:11:11.369Z,97.80
2023-04-11T21:13:43.170Z,97.70
2023-04-11T21:16:15.094Z,97.90
2023-04-11T21:18:47.033Z,98.00
2023-04-11T21:21:18.874Z,97.60
2023-04-11T21:23:53.775Z,97.90
2023-04-11T21:26:27.139Z,97.60
2023-04-11T21:28:58.723Z,97.60
2023-04-11T21:31:30.621Z,98.10
2023-04-11T21:34:02.493Z,98.60
2023-04-11T21:36:34.444Z,98.40
2023-04-11T21:39:07.663Z,98.70
2023-04-11T21:41:41.501Z,98.70
2023-04-11T21:44:13.359Z,98.40
2023-04-11T21:46:47.169Z,98.30
2023-04-11T21:49:19.011Z,98.20
2023-04-11T21:51:50.956Z,98.40
2023-04-11T21:54:22.779Z,98.20
2023-04-11T21:56:57.220Z,98.30
2023-04-11T21:59:29.083Z,98.90
2023-04-11T22:02:01.288Z,99.00
2023-04-11T22:04:41.416Z,99.30
2023-04-11T22:07:23.995Z,98.70
2023-04-11T22:09:58.390Z,98.90
2023-04-11T22:12:31.534Z,99.20
2023-04-11T22:15:03.840Z,99.10
2023-04-11T22:17:37.122Z,99.10
2023-04-11T22:20:09.814Z,99.20
2023-04-11T22:22:42.058Z,99.30
2023-04-11T22:25:14.842Z,99.60
2023-04-11T22:27:49.703Z,99.90
2023-04-11T22:30:23.478Z,99.90
2023-04-11T22:32:55.284Z,99.70
2023-04-11T22:35:26.903Z,99.90
2023-04-11T22:38:00.628Z,99.70
2023-04-11T22:40:32.449Z,99.70
2023-04-11T22:43:05.996Z,99.90
2023-04-11T22:45:38.162Z,99.80
2023-04-11T22:48:10.601Z,99.60
2023-04-11T22:50:43.578Z,99.90
2023-04-11T22:53:13.895Z,99.90
2023-04-11T22:55:48.992Z,99.90
2023-04-11T22:58:23.590Z,99.90
2023-04-11T23:00:56.778Z,99.90
2023-04-11T23:03:31.656Z,99.90
2023-04-11T23:06:07.794Z,99.90
2023-04-11T23:08:42.829Z,99.90
2023-04-11T23:11:14.509Z,99.90
2023-04-11T23:13:47.872Z,99.90
2023-04-11T23:16:23.515Z,99.90
2023-04-11T23:18:56.105Z,99.90
2023-04-11T23:21:28.866Z,99.90
2023-04-11T23:24:00.547Z,99.90
2023-04-11T23:26:32.242Z,99.90
2023-04-11T23:29:05.444Z,99.90
2023-04-11T23:31:37.340Z,99.90
2023-04-11T23:34:09.927Z,99.90
2023-04-11T23:36:42.198Z,99.90
2023-04-11T23:39:14.376Z,99.90
2023-04-11T23:41:46.371Z,99.90
2023-04-11T23:44:19.651Z,99.90
2023-04-11T23:46:51.467Z,99.90
2023-04-11T23:49:23.286Z,99.90
2023-04-11T23:51:55.723Z,99.90
2023-04-11T23:54:30.389Z,99.90
2023-04-11T23:57:02.457Z,99.90
2023-04-11T23:59:36.064Z,99.90
